Soleil Weather Down

Nearby METAR Reports

 

KCNI - Canton/Cherokee, Georgia, USA
Distance from station: ENE 6mi, 10km
Updated: Tue, 19-Nov-2019 7:30am EST
Overcast
Overcast
 Wind from WNW
Wind: WNW 3 mph , 6 km/h
Temperature: 43°F , 6°C
Dew Point: 34°F , 1°C
Humidity: 71%
Barometer: 29.87 inHg , 1011.5 hPa
Clouds: Overcast
Visibility: 10 miles , 16 km
Cloud details: Overcast 8500 ft
2019/11/19 12:30 KCNI 191230Z AUTO 29003KT 10SM OVC085 06/01 A2987 RMK AO2
KRYY - Marietta Mccolum, Georgia, USA
Distance from station: SSW 18mi, 29km
Updated: Tue, 19-Nov-2019 6:50am EST
Clear
Clear
 Wind from W
Wind: W 6 mph , 9 km/h
Temperature: 43°F , 6°C
Wind Chill: 39°F , 4°C
Dew Point: 37°F , 3°C
Humidity: 81%
Barometer: 29.87 inHg , 1011.5 hPa
Clouds: Clear
Visibility: 10 miles , 16 km
2019/11/19 11:50 KRYY 191150Z 27005KT 10SM CLR 06/03 A2987 RMK AO2 SLP839 6//// 7//// T00560028 10072 20056 53008 PNO $
KVPC - Cartersville, Georgia, USA
Distance from station: WSW 22mi, 35km
Updated: Tue, 19-Nov-2019 6:53am EST
Mostly cloudy
Mostly cloudy
 Wind from calm
Wind: Calm
Temperature: 43°F , 6°C
Dew Point: 37°F , 3°C
Humidity: 81%
Barometer: 29.89 inHg , 1012.2 hPa
Clouds: Mostly cloudy
Visibility: 10 miles , 16 km
Cloud details: Mostly cloudy 8000 ft
2019/11/19 11:53 KVPC 191153Z AUTO 00000KT 10SM BKN080 06/03 A2989 RMK AO2 SLP118 T00560033 10072 20050 53010
 
KMGE - Dobbins Afb/Mari, Georgia, USA
Distance from station: S 24mi, 39km
Updated: Tue, 19-Nov-2019 6:56am EST
Mostly cloudy
Mostly cloudy
 Wind from W
Wind: W 8 mph , 13 km/h
Temperature: 43°F , 6°C
Wind Chill: 38°F , 3°C
Dew Point: 36°F , 2°C
Humidity: 76%
Barometer: 29.86 inHg , 1011.2 hPa
Clouds: Mostly cloudy
Visibility: 10 miles , 16 km
Cloud details: Mostly cloudy 11000 ft
Mostly cloudy 16000 ft
Mostly cloudy 25000 ft
2019/11/19 11:56 KMGE 191156Z 28007KT 10SM BKN110 BKN160 BKN250 06/02 A2986 RMK AO2A SLP115 T00560024 10074 20056 53009 $
KPDK - Peachtree/Dekalb, Georgia, USA
Distance from station: SSE 29mi, 47km
Updated: Tue, 19-Nov-2019 6:53am EST
Partly cloudy
Partly cloudy
 Wind from WNW
Wind: WNW 8 mph , 13 km/h
Temperature: 45°F , 7°C
Wind Chill: 41°F , 5°C
Dew Point: 36°F , 2°C
Humidity: 71%
Barometer: 29.85 inHg , 1010.8 hPa
Clouds: Partly cloudy
Visibility: 10 miles , 16 km
Cloud details: Partly cloudy 10000 ft
Partly cloudy 12000 ft
2019/11/19 11:53 KPDK 191153Z 29007KT 10SM SCT100 SCT120 07/02 A2985 RMK AO2 SLP114 T00670022 10078 20061 53008
KFTY - Atlanta/Fulton, Georgia, USA
Distance from station: S 34mi, 54km
Updated: Tue, 19-Nov-2019 6:53am EST
Clear
Clear
 Wind from varies
Wind: varies 5 mph , 7 km/h
Temperature: 45°F , 7°C
Wind Chill: 42°F , 6°C
Dew Point: 37°F , 3°C
Humidity: 76%
Barometer: 29.87 inHg , 1011.5 hPa
Clouds: Clear
Visibility: 10 miles , 16 km
2019/11/19 11:53 KFTY 191153Z VRB04KT 10SM CLR 07/03 A2987 RMK AO2 SLP114 T00670028 10078 20067 53008
 
KPUJ - Atlanta/Paulding, Georgia, USA
Distance from station: SW 34mi, 55km
Updated: Tue, 19-Nov-2019 7:35am EST
Overcast
Overcast
 Wind from WNW
Wind: WNW 5 mph , 7 km/h
Temperature: 41°F , 5°C
Wind Chill: 38°F , 3°C
Dew Point: 34°F , 1°C
Humidity: 76%
Barometer: 29.88 inHg , 1011.9 hPa
Clouds: Overcast
Visibility: 10 miles , 16 km
Cloud details: Partly cloudy 5500 ft
Partly cloudy 6500 ft
Overcast 8000 ft
2019/11/19 12:35 KPUJ 191235Z AUTO 30004KT 10SM SCT055 SCT065 OVC080 05/01 A2988 RMK AO2
KDNN - Dalton, Georgia, USA
Distance from station: NW 37mi, 59km
Updated: Tue, 19-Nov-2019 7:35am EST
Overcast
Overcast
 Wind from W
Wind: W 3 mph , 6 km/h
Temperature: 45°F , 7°C
Dew Point: 36°F , 2°C
Humidity: 71%
Barometer: 29.91 inHg , 1012.9 hPa
Clouds: Overcast
Visibility: 10 miles , 16 km
Cloud details: Mostly cloudy 6000 ft
Overcast 8000 ft
2019/11/19 12:35 KDNN 191235Z AUTO 26003KT 10SM BKN060 OVC080 07/02 A2991 RMK AO2
KLZU - Lawrenceville, Georgia, USA
Distance from station: ESE 37mi, 59km
Updated: Tue, 19-Nov-2019 6:56am EST
Overcast
Overcast
 Wind from varies
Wind: varies 7 mph , 11 km/h
Temperature: 45°F , 7°C
Wind Chill: 41°F , 5°C
Dew Point: 36°F , 2°C
Humidity: 71%
Barometer: 29.84 inHg , 1010.5 hPa
Clouds: Overcast
Visibility: 10 miles , 16 km
Cloud details: Overcast 12000 ft
2019/11/19 11:56 KLZU 191156Z VRB06KT 10SM OVC120 07/02 A2984 RMK AO2 RAB24E36 SLP116 P0000 60000 T00720022 10078 20072 53007
 
KRMG - Rome, Georgia, USA
Distance from station: W 38mi, 61km
Updated: Tue, 19-Nov-2019 6:53am EST
Overcast
Overcast
 Wind from calm
Wind: Calm
Temperature: 43°F , 6°C
Dew Point: 37°F , 3°C
Humidity: 81%
Barometer: 29.88 inHg , 1011.9 hPa
Clouds: Overcast
Visibility: 10 miles , 16 km
Cloud details: Overcast 7000 ft
2019/11/19 11:53 KRMG 191153Z AUTO 00000KT 10SM OVC070 06/03 A2988 RMK AO2 SLP115 T00560033 10078 20039 53011
KGVL - Gainesville, Georgia, USA
Distance from station: E 39mi, 62km
Updated: Tue, 19-Nov-2019 6:53am EST
Mostly cloudy
Mostly cloudy
 Wind from W
Wind: W 7 mph , 11 km/h
Temperature: 45°F , 7°C
Wind Chill: 41°F , 5°C
Dew Point: 37°F , 3°C
Humidity: 76%
Barometer: 29.84 inHg , 1010.5 hPa
Clouds: Mostly cloudy
Visibility: 10 miles , 16 km
Cloud details: Mostly cloudy 11000 ft
2019/11/19 11:53 KGVL 191153Z AUTO 27006KT 10SM BKN110 07/03 A2984 RMK AO2 SLP102 T00670033 10083 20067 53009
KATL - Atlanta, Georgia, USA
Distance from station: S 44mi, 71km
Updated: Tue, 19-Nov-2019 6:52am EST
Mostly cloudy
Mostly cloudy
 Wind from WNW
Wind: WNW 8 mph , 13 km/h
Temperature: 45°F , 7°C
Wind Chill: 41°F , 5°C
Dew Point: 37°F , 3°C
Humidity: 76%
Barometer: 29.86 inHg , 1011.2 hPa
Clouds: Mostly cloudy
Visibility: 10 miles , 16 km
Cloud details: Few Clouds 6000 ft
Mostly cloudy 14000 ft
Mostly cloudy 18000 ft
2019/11/19 11:52 KATL 191152Z 29007KT 10SM FEW060 BKN140 BKN180 07/03 A2986 RMK AO2 SLP113 T00670028 10078 20067 53007